Time;durP1;ratioP1;P1;durP2;ratioP2;P2;SDS_P1;SDS_P2;PMS_P1;PMS_P2;Temp;Humidity;BMP_temperature;BMP_pressure;BME280_temperature;BME280_humidity;BME280_pressure;Samples;Min_cycle;Max_cycle;Signal;HPM_P1;HPM_P2
2024/03/29 00:00:55;;;;;;;6.07;4.43;;;;;;;6.65;61.39;94780.84;4955372;28;20229;-69
2024/03/29 00:03:21;;;;;;;6.10;4.80;;;;;;;6.82;61.08;94768.66;4960283;28;20188;-70
2024/03/29 00:05:46;;;;;;;5.60;4.30;;;;;;;6.72;61.27;94781.34;4965838;28;20441;-69
2024/03/29 00:08:11;;;;;;;8.93;4.80;;;;;;;6.86;61.25;94771.00;4958451;28;20186;-70
2024/03/29 00:10:38;;;;;;;6.00;4.53;;;;;;;6.93;61.18;94781.94;4969668;28;20220;-69
2024/03/29 00:13:03;;;;;;;6.90;4.83;;;;;;;6.98;61.11;94775.53;4966754;28;20181;-70
2024/03/29 00:15:31;;;;;;;6.63;5.07;;;;;;;6.91;60.99;94771.56;4954755;28;20808;-69
2024/03/29 00:17:57;;;;;;;6.20;4.47;;;;;;;6.64;61.46;94771.34;4962931;28;20531;-68
2024/03/29 00:20:23;;;;;;;9.50;4.83;;;;;;;6.91;61.26;94773.34;4960144;28;20476;-69
2024/03/29 00:22:48;;;;;;;6.53;4.63;;;;;;;6.58;61.39;94767.28;4964332;28;20185;-69
2024/03/29 00:25:14;;;;;;;6.43;4.57;;;;;;;6.32;63.02;94765.25;4962072;28;20941;-69
2024/03/29 00:27:39;;;;;;;8.80;4.47;;;;;;;6.43;63.11;94756.88;4956155;28;20186;-69
2024/03/29 00:30:05;;;;;;;9.70;5.43;;;;;;;6.64;62.71;94744.41;4958834;28;20232;-69
2024/03/29 00:32:30;;;;;;;16.77;5.20;;;;;;;6.21;63.68;94721.53;4958194;28;20908;-70
2024/03/29 00:34:57;;;;;;;7.17;4.97;;;;;;;6.57;62.67;94721.31;4965987;28;20441;-69
2024/03/29 00:37:23;;;;;;;5.90;5.30;;;;;;;6.78;62.15;94706.25;4969494;28;20197;-70
2024/03/29 00:39:50;;;;;;;6.90;5.50;;;;;;;6.48;62.94;94693.16;4969049;28;20452;-69
2024/03/29 00:42:16;;;;;;;5.57;3.80;;;;;;;6.10;63.93;94703.06;4962784;28;20185;-69
2024/03/29 00:44:42;;;;;;;6.00;4.50;;;;;;;6.56;63.28;94690.13;4965628;28;20948;-68
2024/03/29 00:47:08;;;;;;;6.80;5.20;;;;;;;6.21;63.91;94672.03;4966150;28;20433;-69
2024/03/29 00:49:34;;;;;;;8.57;5.40;;;;;;;5.60;66.01;94672.69;4958801;28;20480;-68
2024/03/29 00:52:00;;;;;;;8.10;5.47;;;;;;;5.98;64.71;94672.47;4961022;28;20244;-69
2024/03/29 00:54:26;;;;;;;6.67;5.00;;;;;;;6.42;63.42;94680.44;4960635;28;20560;-69
2024/03/29 00:56:52;;;;;;;6.27;4.33;;;;;;;6.20;63.97;94672.16;4967184;28;20445;-68
2024/03/29 00:59:18;;;;;;;5.00;4.03;;;;;;;6.24;63.61;94651.06;4984974;28;20436;-69
2024/03/29 01:01:44;;;;;;;7.03;4.67;;;;;;;6.13;63.86;94632.56;4981762;28;20178;-70
2024/03/29 01:04:09;;;;;;;6.93;4.33;;;;;;;6.08;64.09;94621.56;4994641;28;20196;-69
2024/03/29 01:06:35;;;;;;;9.37;4.67;;;;;;;6.33;63.25;94634.94;4991762;28;20437;-69
2024/03/29 01:09:01;;;;;;;7.07;5.60;;;;;;;6.40;63.57;94619.78;4960407;28;20628;-68
2024/03/29 01:11:26;;;;;;;4.23;3.40;;;;;;;6.23;62.34;94623.31;4967438;28;20256;-69
2024/03/29 01:13:52;;;;;;;6.00;4.03;;;;;;;5.70;64.68;94629.66;4963436;28;20193;-68
2024/03/29 01:16:18;;;;;;;4.93;4.00;;;;;;;5.90;64.74;94645.03;4954598;28;20278;-68
2024/03/29 01:18:43;;;;;;;4.53;4.13;;;;;;;6.32;63.34;94648.88;4956918;28;20540;-68
2024/03/29 01:21:09;;;;;;;4.63;4.00;;;;;;;6.36;62.64;94642.56;4962071;28;20213;-68
2024/03/29 01:23:35;;;;;;;4.53;4.10;;;;;;;6.49;62.61;94653.13;4962003;28;20785;-70
2024/03/29 01:26:00;;;;;;;4.70;4.13;;;;;;;6.47;62.36;94655.00;4963502;28;20190;-69
2024/03/29 01:28:26;;;;;;;5.50;4.10;;;;;;;6.34;63.07;94654.84;4959989;28;20189;-69
2024/03/29 01:30:54;;;;;;;4.80;3.93;;;;;;;6.51;62.84;94646.06;4961038;28;20545;-68
2024/03/29 01:33:20;;;;;;;4.90;3.90;;;;;;;6.44;62.72;94636.09;4962886;28;20197;-71
2024/03/29 01:35:46;;;;;;;4.43;4.00;;;;;;;5.98;63.31;94639.47;4955514;28;20883;-69
2024/03/29 01:38:11;;;;;;;3.80;3.20;;;;;;;6.09;63.16;94631.88;4961379;28;20440;-69
2024/03/29 01:40:37;;;;;;;4.87;3.40;;;;;;;5.92;64.08;94643.19;4962133;28;20291;-69
2024/03/29 01:43:02;;;;;;;8.53;4.07;;;;;;;6.04;63.77;94636.50;4971717;28;20195;-70
2024/03/29 01:45:29;;;;;;;7.47;3.57;;;;;;;6.20;63.43;94646.09;4961456;28;20262;-69
2024/03/29 01:47:55;;;;;;;5.30;3.50;;;;;;;6.33;63.09;94634.06;4953246;28;20197;-69
2024/03/29 01:50:20;;;;;;;4.43;4.03;;;;;;;6.06;63.23;94634.66;4963835;28;21286;-69
2024/03/29 01:52:46;;;;;;;6.77;4.30;;;;;;;6.02;63.77;94640.97;4958078;28;20184;-69
2024/03/29 01:55:12;;;;;;;4.70;3.77;;;;;;;6.29;62.97;94645.59;4955309;28;20561;-69
2024/03/29 01:57:38;;;;;;;4.47;3.50;;;;;;;6.33;62.86;94637.53;4958424;28;20189;-69
2024/03/29 02:00:05;;;;;;;6.67;4.30;;;;;;;6.44;62.83;94636.91;4960395;28;20193;-69
2024/03/29 02:02:32;;;;;;;5.47;3.90;;;;;;;6.36;62.81;94631.31;4965534;28;20472;-70
2024/03/29 02:04:58;;;;;;;8.20;4.20;;;;;;;6.10;63.50;94632.75;4956973;28;20444;-70
2024/03/29 02:07:25;;;;;;;6.63;3.83;;;;;;;6.24;62.95;94627.63;4961314;28;20439;-70
2024/03/29 02:09:50;;;;;;;4.60;4.10;;;;;;;6.26;63.09;94619.69;4970299;28;20567;-70
2024/03/29 02:12:16;;;;;;;4.67;4.27;;;;;;;6.31;62.55;94630.72;4976391;28;20539;-69
2024/03/29 02:14:42;;;;;;;6.63;4.47;;;;;;;6.16;62.93;94629.78;4970847;28;20605;-69
2024/03/29 02:17:08;;;;;;;6.83;4.40;;;;;;;6.24;63.17;94634.59;4956746;28;20448;-69
2024/03/29 02:19:33;;;;;;;6.90;4.77;;;;;;;6.41;62.55;94650.13;4962239;28;20202;-69
2024/03/29 02:22:00;;;;;;;4.83;4.30;;;;;;;6.34;62.85;94667.03;4972562;28;20483;-70
2024/03/29 02:24:26;;;;;;;4.23;3.83;;;;;;;6.25;63.02;94618.03;4969013;28;20189;-68
2024/03/29 02:26:55;;;;;;;4.90;3.70;;;;;;;5.77;64.52;94635.38;4961717;28;20437;-68
2024/03/29 02:29:20;;;;;;;5.97;3.30;;;;;;;5.65;64.88;94661.13;4962433;28;20480;-69
2024/03/29 02:31:45;;;;;;;4.10;3.47;;;;;;;5.88;64.08;94649.50;4967707;28;20442;-68
2024/03/29 02:34:11;;;;;;;9.13;3.90;;;;;;;6.02;63.75;94661.78;4966061;28;20217;-69
2024/03/29 02:36:37;;;;;;;5.80;3.17;;;;;;;6.27;63.04;94658.69;4968894;28;20186;-70
2024/03/29 02:39:02;;;;;;;4.77;4.30;;;;;;;6.22;62.87;94642.50;4964705;28;20300;-68
2024/03/29 02:41:29;;;;;;;5.83;3.13;;;;;;;5.84;63.84;94634.97;4968602;28;20939;-70
2024/03/29 02:43:55;;;;;;;3.73;2.90;;;;;;;5.66;64.71;94641.16;4961546;28;20557;-69
2024/03/29 02:46:21;;;;;;;3.83;3.50;;;;;;;5.79;64.47;94620.50;4966084;28;20451;-69
2024/03/29 02:48:46;;;;;;;3.60;3.30;;;;;;;5.96;63.74;94612.66;4960531;28;20194;-70
2024/03/29 02:51:11;;;;;;;4.57;3.47;;;;;;;6.24;62.89;94605.94;4960127;28;20248;-69
2024/03/29 02:53:38;;;;;;;3.90;3.33;;;;;;;6.28;62.71;94617.84;4965621;28;20260;-69
2024/03/29 02:56:04;;;;;;;2.97;2.67;;;;;;;6.07;63.11;94620.75;4962980;28;20189;-69
2024/03/29 02:58:30;;;;;;;3.37;2.70;;;;;;;6.05;63.18;94601.75;4966014;28;20555;-69
2024/03/29 03:00:55;;;;;;;3.80;3.27;;;;;;;6.09;63.62;94607.63;4966578;28;21396;-69
2024/03/29 03:03:26;;;;;;;8.93;3.90;;;;;;;6.04;63.48;94600.06;4958785;28;20530;-69
2024/03/29 03:05:54;;;;;;;4.93;3.20;;;;;;;5.93;63.40;94564.19;4963801;28;20380;-69
2024/03/29 03:11:04;;;;;;;2.90;2.63;;;;;;;5.03;67.46;94592.38;4965961;28;20531;-69
2024/03/29 03:13:30;;;;;;;3.93;3.20;;;;;;;5.65;65.64;94601.28;4959858;28;20464;-69
2024/03/29 03:15:56;;;;;;;9.63;5.43;;;;;;;5.85;64.63;94587.19;4961464;28;20476;-68
2024/03/29 03:18:22;;;;;;;7.67;3.00;;;;;;;5.82;64.30;94597.75;4962042;28;20185;-69
2024/03/29 03:20:54;;;;;;;4.23;2.70;;;;;;;5.91;64.06;94622.47;4963557;28;20855;-69
2024/03/29 03:23:19;;;;;;;4.90;4.07;;;;;;;5.78;64.71;94611.03;4960129;28;20196;-69
2024/03/29 03:25:53;;;;;;;3.73;2.83;;;;;;;6.09;63.42;94592.00;4968269;28;20438;-69
2024/03/29 03:28:18;;;;;;;8.87;3.20;;;;;;;6.03;63.66;94606.19;4954639;28;20308;-69
2024/03/29 03:30:44;;;;;;;4.20;3.10;;;;;;;6.00;63.93;94624.59;4964531;28;20507;-69
2024/03/29 03:33:09;;;;;;;4.30;3.17;;;;;;;5.91;64.09;94604.25;4965896;28;20189;-69
2024/03/29 03:35:35;;;;;;;9.30;3.43;;;;;;;5.28;66.62;94615.38;4967282;28;20217;-68
2024/03/29 03:38:00;;;;;;;7.50;2.87;;;;;;;5.71;65.25;94624.34;4965605;28;20736;-68
2024/03/29 03:40:25;;;;;;;4.53;3.27;;;;;;;6.02;64.09;94598.47;4967476;28;20213;-69
2024/03/29 03:42:51;;;;;;;3.17;2.87;;;;;;;5.71;64.96;94611.34;4976328;28;20185;-68
2024/03/29 03:45:16;;;;;;;4.37;3.03;;;;;;;5.77;65.46;94604.97;4980023;28;20287;-70
2024/03/29 03:47:42;;;;;;;3.60;3.23;;;;;;;5.75;65.51;94603.38;4990414;28;20193;-70
2024/03/29 03:50:07;;;;;;;3.07;2.77;;;;;;;5.32;66.73;94616.06;4989341;28;20212;-72
2024/03/29 03:52:33;;;;;;;4.17;3.10;;;;;;;5.69;65.55;94605.41;4988548;28;20173;-70
2024/03/29 03:54:58;;;;;;;5.30;2.80;;;;;;;5.95;64.30;94605.75;4959737;28;20649;-70
2024/03/29 03:57:23;;;;;;;3.80;3.23;;;;;;;6.03;64.11;94593.19;4962471;28;20289;-69
2024/03/29 03:59:49;;;;;;;3.63;3.30;;;;;;;6.12;63.64;94590.06;4965663;28;20248;-70
2024/03/29 04:02:15;;;;;;;3.50;3.13;;;;;;;5.54;65.57;94582.78;4958204;28;20194;-70
2024/03/29 04:04:40;;;;;;;4.63;3.23;;;;;;;5.78;65.03;94598.84;4960157;28;20463;-70
2024/03/29 04:07:06;;;;;;;7.53;3.33;;;;;;;6.14;63.67;94619.47;4962615;28;20589;-70
2024/03/29 04:09:31;;;;;;;2.90;2.50;;;;;;;6.12;64.14;94595.28;4965234;28;20292;-69
2024/03/29 04:11:57;;;;;;;3.47;2.67;;;;;;;5.41;65.73;94592.16;4968030;28;20553;-70
2024/03/29 04:14:22;;;;;;;4.70;3.00;;;;;;;5.91;64.70;94622.47;4961215;28;20191;-69
2024/03/29 04:16:47;;;;;;;3.97;2.90;;;;;;;6.24;63.26;94655.44;4958894;28;20198;-69
2024/03/29 04:19:13;;;;;;;3.40;3.03;;;;;;;6.19;63.22;94616.63;4964305;28;20182;-69
2024/03/29 04:21:38;;;;;;;4.10;2.60;;;;;;;6.12;62.10;94558.00;4965346;28;20177;-69
2024/03/29 04:24:07;;;;;;;3.17;2.87;;;;;;;6.06;63.18;94621.66;4955146;28;20189;-69
2024/03/29 04:26:32;;;;;;;5.50;2.73;;;;;;;6.22;62.12;94608.63;4962874;28;20205;-69
2024/03/29 04:28:58;;;;;;;3.77;2.67;;;;;;;6.13;61.82;94583.09;4956791;28;20424;-69
2024/03/29 04:31:23;;;;;;;2.90;2.40;;;;;;;6.06;62.42;94586.97;4959253;28;20209;-69
2024/03/29 04:33:49;;;;;;;3.03;2.53;;;;;;;6.40;61.27;94595.50;4964774;28;20188;-69
2024/03/29 04:36:14;;;;;;;4.27;2.80;;;;;;;6.33;62.15;94576.75;4953079;28;20189;-70
2024/03/29 04:38:40;;;;;;;3.70;2.53;;;;;;;6.55;61.20;94595.47;4956137;28;20189;-69
2024/03/29 04:41:06;;;;;;;4.60;2.90;;;;;;;6.28;61.18;94573.56;4971292;28;20659;-70
2024/03/29 04:43:31;;;;;;;3.97;2.33;;;;;;;6.38;60.66;94576.50;4971487;28;20539;-69
2024/03/29 04:46:06;;;;;;;8.33;2.87;;;;;;;6.33;61.40;94574.16;4962250;28;20181;-68
2024/03/29 04:48:32;;;;;;;3.00;2.70;;;;;;;6.42;60.97;94581.44;4960775;28;20271;-69
2024/03/29 04:50:57;;;;;;;4.37;2.17;;;;;;;6.34;61.75;94561.03;4966164;28;20568;-68
2024/03/29 04:53:23;;;;;;;2.70;2.40;;;;;;;6.07;62.61;94568.66;4960816;28;20268;-68
2024/03/29 04:55:56;;;;;;;10.23;2.73;;;;;;;6.31;62.24;94576.84;4964408;28;20182;-69
2024/03/29 04:58:22;;;;;;;2.60;2.40;;;;;;;6.15;62.29;94583.84;4964226;28;20205;-69
2024/03/29 05:00:49;;;;;;;11.83;3.70;;;;;;;6.33;62.10;94605.41;4963814;28;20453;-69
2024/03/29 05:03:14;;;;;;;5.37;2.20;;;;;;;6.42;61.43;94594.47;4964018;28;20534;-69
2024/03/29 05:05:40;;;;;;;9.60;2.90;;;;;;;6.40;61.90;94635.41;4963585;28;20936;-69
2024/03/29 05:08:05;;;;;;;4.20;2.60;;;;;;;6.46;61.63;94624.66;4961355;28;20260;-68
2024/03/29 05:10:31;;;;;;;4.97;3.17;;;;;;;6.55;61.28;94646.75;4959354;28;20233;-68
2024/03/29 05:12:56;;;;;;;8.83;3.30;;;;;;;6.72;61.24;94648.41;4968525;28;20181;-69
2024/03/29 05:15:21;;;;;;;9.83;2.73;;;;;;;6.77;60.78;94641.16;4966089;28;20276;-67
2024/03/29 05:17:47;;;;;;;2.30;2.10;;;;;;;6.37;61.28;94593.91;4962734;28;20177;-68
2024/03/29 05:20:12;;;;;;;3.23;2.60;;;;;;;6.33;62.25;94615.84;4966175;28;20209;-70
2024/03/29 05:22:37;;;;;;;21.20;3.40;;;;;;;6.32;62.82;94632.41;4958086;28;20182;-69
2024/03/29 05:25:04;;;;;;;9.60;4.20;;;;;;;6.54;61.41;94614.66;4961565;28;20268;-70
2024/03/29 05:27:29;;;;;;;4.63;2.40;;;;;;;6.42;61.75;94604.91;4959028;28;20285;-69
2024/03/29 05:29:55;;;;;;;3.77;2.60;;;;;;;6.33;62.69;94613.22;4956553;28;20782;-69
2024/03/29 05:32:20;;;;;;;2.70;2.40;;;;;;;6.32;63.20;94601.97;4960662;28;20924;-69
2024/03/29 05:34:46;;;;;;;3.97;2.87;;;;;;;6.20;63.67;94583.59;4959261;28;20195;-69
2024/03/29 05:37:12;;;;;;;4.57;2.83;;;;;;;5.81;65.03;94580.47;4956513;28;20498;-69
2024/03/29 05:39:37;;;;;;;3.40;2.73;;;;;;;5.61;65.74;94580.72;4960642;28;20463;-70
2024/03/29 05:42:03;;;;;;;6.23;2.50;;;;;;;5.81;65.27;94574.41;4973748;28;20177;-68
2024/03/29 05:44:28;;;;;;;6.20;3.07;;;;;;;5.89;65.27;94578.28;4963835;28;20280;-70
2024/03/29 05:46:54;;;;;;;3.80;3.00;;;;;;;6.03;64.77;94558.50;4963902;28;20192;-69
2024/03/29 05:49:19;;;;;;;5.83;3.57;;;;;;;5.94;64.73;94563.28;4953947;28;20204;-69
2024/03/29 05:51:44;;;;;;;14.40;4.10;;;;;;;5.87;65.57;94574.91;4958611;28;20174;-69
2024/03/29 05:54:10;;;;;;;9.20;3.67;;;;;;;5.92;65.10;94598.09;4955438;28;20178;-70
2024/03/29 05:56:35;;;;;;;5.90;3.90;;;;;;;6.09;64.29;94595.44;4962286;28;20883;-69
2024/03/29 05:59:00;;;;;;;8.80;3.70;;;;;;;6.52;63.01;94613.03;4960272;28;20182;-68
2024/03/29 06:01:26;;;;;;;3.83;3.20;;;;;;;6.61;62.22;94624.72;4955487;28;20206;-68
2024/03/29 06:03:52;;;;;;;4.47;2.77;;;;;;;6.63;62.41;94618.47;4959086;28;20190;-70
2024/03/29 06:06:22;;;;;;;3.47;3.10;;;;;;;6.60;62.24;94628.25;4965167;28;20190;-69
2024/03/29 06:08:47;;;;;;;2.97;2.77;;;;;;;6.78;61.18;94635.88;4956085;28;20449;-69
2024/03/29 06:11:12;;;;;;;6.37;2.70;;;;;;;7.05;61.12;94629.97;4966720;28;21237;-69
2024/03/29 06:19:10;;;;;;;5.30;2.90;;;;;;;8.77;55.81;94649.94;4963601;28;20551;-67
2024/03/29 06:21:39;;;;;;;4.40;2.87;;;;;;;9.19;53.94;94655.88;4962886;28;20424;-69
2024/03/29 06:24:14;;;;;;;6.27;2.43;;;;;;;8.54;55.25;94648.78;4953610;28;20281;-70
2024/03/29 06:26:41;;;;;;;2.17;1.97;;;;;;;8.07;56.42;94651.66;4949903;28;20963;-71
2024/03/29 06:29:09;;;;;;;8.67;3.90;;;;;;;7.59;58.52;94663.34;4951625;28;20436;-68
2024/03/29 06:31:35;;;;;;;6.93;2.90;;;;;;;7.71;58.27;94665.19;4962004;28;20434;-70
2024/03/29 06:34:00;;;;;;;5.77;2.47;;;;;;;7.48;58.41;94660.50;4960874;28;20439;-68
2024/03/29 06:36:26;;;;;;;2.30;2.10;;;;;;;6.98;59.81;94666.00;4965762;28;20192;-70
2024/03/29 06:38:53;;;;;;;2.00;1.70;;;;;;;6.92;60.16;94662.91;4965452;28;20198;-69
2024/03/29 06:41:18;;;;;;;6.53;2.23;;;;;;;6.71;60.98;94678.84;4963743;28;20233;-68
2024/03/29 06:43:44;;;;;;;2.50;2.20;;;;;;;7.27;60.14;94679.09;4962384;28;20516;-69
2024/03/29 06:46:10;;;;;;;2.90;1.77;;;;;;;7.49;59.31;94667.41;4963004;28;20721;-69
2024/03/29 06:48:36;;;;;;;2.73;1.83;;;;;;;7.50;59.09;94643.00;4965575;28;20429;-69
2024/03/29 06:51:02;;;;;;;2.07;1.70;;;;;;;7.17;59.33;94665.75;4961105;28;20497;-69
2024/03/29 06:53:28;;;;;;;2.70;2.07;;;;;;;7.11;60.18;94652.25;4958597;28;20188;-68
2024/03/29 06:55:56;;;;;;;2.40;1.77;;;;;;;7.23;59.38;94646.31;4960397;28;21270;-70
2024/03/29 06:58:21;;;;;;;5.23;2.10;;;;;;;7.54;59.28;94637.50;4965181;28;20562;-70
2024/03/29 07:00:49;;;;;;;2.20;1.80;;;;;;;7.19;59.54;94631.78;4967428;28;20449;-69
2024/03/29 07:03:15;;;;;;;3.00;2.70;;;;;;;6.66;61.79;94636.56;4963733;28;20689;-70
2024/03/29 07:05:41;;;;;;;3.50;2.53;;;;;;;7.04;60.87;94645.69;4958656;28;20440;-70
2024/03/29 07:08:06;;;;;;;2.90;2.57;;;;;;;7.54;59.68;94636.66;4963044;28;20844;-69
2024/03/29 07:10:32;;;;;;;3.07;2.43;;;;;;;7.33;60.24;94629.19;4966115;28;20709;-70
2024/03/29 07:12:58;;;;;;;5.47;2.83;;;;;;;7.34;60.51;94630.84;4974788;28;20178;-70
2024/03/29 07:15:23;;;;;;;5.63;2.70;;;;;;;7.37;60.29;94638.53;4968191;28;20193;-71
2024/03/29 07:17:50;;;;;;;4.97;2.27;;;;;;;7.19;60.65;94624.78;4965824;28;20185;-69
2024/03/29 07:20:16;;;;;;;4.50;3.90;;;;;;;6.74;62.25;94626.53;4954765;28;20204;-70
2024/03/29 07:22:41;;;;;;;4.40;2.10;;;;;;;7.19;61.71;94631.78;4957521;28;20434;-68
2024/03/29 07:25:07;;;;;;;3.53;2.13;;;;;;;6.87;62.46;94638.84;4959266;28;20181;-68
2024/03/29 07:27:35;;;;;;;2.70;2.50;;;;;;;7.19;64.39;94616.97;4962832;28;20178;-69
2024/03/29 07:30:03;;;;;;;2.23;2.00;;;;;;;6.65;63.81;94629.66;4963544;28;20275;-69
2024/03/29 07:32:29;;;;;;;3.10;2.70;;;;;;;6.77;63.51;94641.16;4952377;28;20449;-69
2024/03/29 07:34:57;;;;;;;5.30;2.43;;;;;;;8.40;78.81;94626.16;4957366;28;20433;-69
2024/03/29 07:37:23;;;;;;;3.60;2.70;;;;;;;7.62;61.37;94643.09;4961275;28;20280;-69
2024/03/29 07:39:50;;;;;;;6.63;3.17;;;;;;;7.43;62.46;94638.13;4971222;28;20477;-70
2024/03/29 07:42:16;;;;;;;4.60;2.57;;;;;;;7.22;62.77;94629.81;4969006;28;20425;-70
2024/03/29 07:44:41;;;;;;;3.03;2.73;;;;;;;7.34;62.65;94623.03;4964360;28;20193;-70
2024/03/29 07:47:07;;;;;;;6.50;2.57;;;;;;;7.71;61.56;94614.75;4964319;28;20181;-68
2024/03/29 07:49:32;;;;;;;3.70;2.57;;;;;;;7.83;60.25;94614.00;4968309;28;20267;-69
2024/03/29 07:51:59;;;;;;;5.50;2.37;;;;;;;8.95;57.76;94604.25;4964046;28;20848;-69
2024/03/29 07:54:24;;;;;;;3.70;2.60;;;;;;;9.65;54.39;94605.66;4958416;28;20200;-70
2024/03/29 07:56:50;;;;;;;3.17;2.03;;;;;;;10.62;52.01;94615.41;4961031;28;21008;-70
2024/03/29 07:59:19;;;;;;;2.43;1.70;;;;;;;11.29;51.09;94620.09;4955653;28;20185;-70
2024/03/29 08:01:44;;;;;;;2.40;1.93;;;;;;;11.66;49.44;94609.41;4959983;28;20248;-71
2024/03/29 08:04:09;;;;;;;2.77;2.03;;;;;;;12.15;48.72;94608.25;4969447;28;20885;-69
2024/03/29 08:06:35;;;;;;;3.33;2.00;;;;;;;12.44;47.34;94613.84;4970302;28;20193;-68
2024/03/29 08:09:00;;;;;;;2.43;1.67;;;;;;;12.91;46.06;94624.13;4972604;28;20196;-70
2024/03/29 08:11:26;;;;;;;2.37;1.90;;;;;;;13.03;46.40;94633.66;4968703;28;20201;-70
2024/03/29 08:13:51;;;;;;;1.73;1.53;;;;;;;13.40;44.87;94633.28;4972972;28;20178;-69
2024/03/29 08:16:17;;;;;;;7.23;1.63;;;;;;;13.18;44.36;94631.56;4968888;28;20186;-68
2024/03/29 08:18:45;;;;;;;2.60;1.70;;;;;;;12.68;44.52;94613.69;4962328;28;20193;-69
2024/03/29 08:21:11;;;;;;;3.13;2.20;;;;;;;12.38;45.93;94614.34;4972973;28;20185;-68
2024/03/29 08:23:41;;;;;;;2.50;1.80;;;;;;;12.11;46.34;94606.00;4972517;28;20436;-69
2024/03/29 08:26:06;;;;;;;5.83;1.90;;;;;;;11.84;45.90;94613.25;4971311;28;20435;-69
2024/03/29 08:28:32;;;;;;;2.80;1.70;;;;;;;12.00;46.47;94612.94;4982745;28;20443;-68
2024/03/29 08:31:02;;;;;;;4.97;1.50;;;;;;;11.70;47.38;94607.41;4973550;28;20206;-69
2024/03/29 08:33:28;;;;;;;2.37;1.90;;;;;;;11.75;47.00;94610.50;4966600;28;20229;-68
2024/03/29 08:35:53;;;;;;;3.43;1.73;;;;;;;11.40;47.57;94608.78;4967126;28;20437;-70
2024/03/29 08:38:18;;;;;;;2.90;1.90;;;;;;;11.06;48.78;94615.75;4966136;28;20221;-69
2024/03/29 08:40:47;;;;;;;2.30;2.00;;;;;;;11.32;48.36;94611.16;4966011;28;20201;-70
2024/03/29 08:43:13;;;;;;;2.13;1.60;;;;;;;11.51;46.31;94606.19;4958072;28;20181;-69
2024/03/29 08:45:40;;;;;;;2.40;1.60;;;;;;;11.10;47.19;94604.91;4960650;28;20432;-69
2024/03/29 08:48:07;;;;;;;2.50;1.77;;;;;;;11.02;48.40;94615.13;4965875;28;20188;-69
2024/03/29 08:50:33;;;;;;;12.10;2.83;;;;;;;11.42;48.28;94610.34;4964297;28;20481;-70
2024/03/29 08:52:58;;;;;;;2.63;2.13;;;;;;;11.43;48.11;94611.16;4967138;28;20443;-70
2024/03/29 08:55:24;;;;;;;2.47;1.43;;;;;;;11.03;49.78;94611.53;4964115;28;20196;-68
2024/03/29 08:57:49;;;;;;;2.30;1.70;;;;;;;10.94;50.72;94623.56;4960726;28;20278;-68
2024/03/29 09:00:14;;;;;;;2.50;1.93;;;;;;;11.69;49.25;94614.41;4962287;28;20202;-70
2024/03/29 09:02:40;;;;;;;4.27;2.47;;;;;;;11.75;48.96;94613.13;4970094;28;20680;-69
2024/03/29 09:05:06;;;;;;;2.03;1.60;;;;;;;12.17;48.04;94611.63;4963790;28;20353;-69
2024/03/29 09:07:31;;;;;;;1.97;1.67;;;;;;;12.22;47.93;94600.72;4971215;28;20263;-69
2024/03/29 09:09:56;;;;;;;4.23;1.67;;;;;;;11.74;49.41;94603.56;4958467;28;20206;-69
2024/03/29 09:12:22;;;;;;;2.17;1.53;;;;;;;11.81;48.75;94608.25;4962453;28;20185;-69
2024/03/29 09:14:47;;;;;;;2.23;1.60;;;;;;;11.82;47.84;94614.34;4965954;28;20192;-69
2024/03/29 09:17:13;;;;;;;2.00;1.50;;;;;;;11.14;50.33;94608.13;4965438;28;20750;-69
2024/03/29 09:19:38;;;;;;;1.50;1.20;;;;;;;11.47;48.97;94615.25;4964949;28;20230;-68
2024/03/29 09:22:03;;;;;;;3.53;2.80;;;;;;;11.71;49.84;94628.28;4972908;28;20177;-70
2024/03/29 09:24:29;;;;;;;7.00;1.80;;;;;;;12.34;48.59;94638.38;4967909;28;20205;-68
2024/03/29 09:26:54;;;;;;;2.30;1.80;;;;;;;12.50;47.94;94637.03;4965370;28;20193;-69
2024/03/29 09:29:20;;;;;;;2.33;1.63;;;;;;;11.93;48.10;94640.66;4987640;28;20222;-69
2024/03/29 09:31:46;;;;;;;1.90;1.53;;;;;;;11.63;47.72;94641.19;4989587;28;20185;-70
2024/03/29 09:34:12;;;;;;;3.60;2.00;;;;;;;11.84;48.65;94628.19;4984467;28;20417;-69
2024/03/29 09:36:38;;;;;;;4.73;1.70;;;;;;;11.59;50.48;94645.00;4971697;28;20188;-69
2024/03/29 09:39:06;;;;;;;2.40;1.80;;;;;;;11.16;52.39;94637.72;4956878;28;20479;-70
2024/03/29 09:41:37;;;;;;;2.80;2.20;;;;;;;11.04;52.58;94638.63;4964614;28;20193;-69
2024/03/29 09:44:02;;;;;;;2.20;1.97;;;;;;;11.26;52.33;94635.25;4958140;28;20524;-68
2024/03/29 09:46:29;;;;;;;2.43;2.23;;;;;;;11.02;52.48;94638.75;4960341;28;20893;-69
2024/03/29 09:48:55;;;;;;;2.30;2.07;;;;;;;11.01;53.51;94637.06;4963142;28;20182;-70
2024/03/29 09:51:21;;;;;;;2.70;2.10;;;;;;;11.33;52.25;94633.81;4965896;28;20472;-70
2024/03/29 09:53:48;;;;;;;2.07;1.87;;;;;;;10.97;52.70;94628.56;4963993;28;20447;-70
2024/03/29 09:56:14;;;;;;;2.80;1.67;;;;;;;10.84;52.96;94654.03;4965742;28;21944;-71
2024/03/29 09:58:39;;;;;;;2.63;2.07;;;;;;;10.81;54.01;94670.00;4961323;28;20445;-69
2024/03/29 10:01:07;;;;;;;3.07;2.00;;;;;;;10.91;54.23;94672.78;4959648;28;20209;-69
2024/03/29 10:03:39;;;;;;;2.40;1.93;;;;;;;10.86;55.45;94680.19;4964148;28;20196;-71
2024/03/29 10:06:08;;;;;;;3.33;2.00;;;;;;;10.94;55.67;94677.84;4962660;28;20441;-68
2024/03/29 10:08:34;;;;;;;8.47;2.40;;;;;;;10.84;56.09;94682.06;4963179;28;20452;-69
2024/03/29 10:11:01;;;;;;;4.33;2.00;;;;;;;11.02;56.44;94662.34;4960848;28;20495;-68
2024/03/29 10:13:27;;;;;;;2.60;1.77;;;;;;;10.86;57.16;94667.88;4960405;28;20484;-70
2024/03/29 10:15:55;;;;;;;3.20;1.90;;;;;;;10.64;56.76;94668.59;4956720;28;20454;-69
2024/03/29 10:18:22;;;;;;;2.30;1.93;;;;;;;10.62;57.81;94659.19;4960437;28;20186;-70
2024/03/29 10:21:01;;;;;;;3.73;2.17;;;;;;;10.62;57.75;94654.75;4958007;28;20775;-69
2024/03/29 10:23:27;;;;;;;3.37;2.60;;;;;;;10.03;59.20;94636.22;4960188;28;20482;-70
2024/03/29 10:25:52;;;;;;;5.70;1.80;;;;;;;10.02;59.58;94653.72;4966528;28;20468;-70
2024/03/29 10:28:19;;;;;;;5.00;2.10;;;;;;;10.13;59.41;94645.97;4955585;28;20792;-70
2024/03/29 10:30:44;;;;;;;2.43;2.23;;;;;;;9.93;60.23;94652.56;4964088;28;20240;-69
2024/03/29 10:33:10;;;;;;;6.63;2.53;;;;;;;9.79;61.10;94649.25;4969970;28;20799;-70
2024/03/29 10:35:35;;;;;;;9.47;3.00;;;;;;;9.71;62.03;94647.16;4970065;28;20212;-69
2024/03/29 10:38:04;;;;;;;4.23;2.17;;;;;;;9.90;62.30;94639.69;4968808;28;20255;-71
2024/03/29 10:40:30;;;;;;;3.30;2.97;;;;;;;9.89;62.64;94650.28;4969489;28;20243;-70
2024/03/29 10:42:56;;;;;;;3.70;2.60;;;;;;;9.95;62.73;94648.06;4968765;28;20486;-70
2024/03/29 10:45:22;;;;;;;3.70;2.20;;;;;;;9.60;63.97;94644.44;4970936;28;20437;-70
2024/03/29 10:47:49;;;;;;;4.50;3.00;;;;;;;9.70;64.27;94645.47;4965423;28;20444;-71
2024/03/29 10:50:17;;;;;;;2.83;2.30;;;;;;;9.66;63.81;94641.38;4969946;28;20473;-70
2024/03/29 10:52:43;;;;;;;2.90;2.53;;;;;;;9.43;65.24;94651.66;4969742;28;20425;-70
2024/03/29 10:55:11;;;;;;;3.30;3.00;;;;;;;9.66;63.89;94655.34;4969796;28;20486;-72
2024/03/29 10:57:40;;;;;;;2.90;2.63;;;;;;;9.76;63.52;94642.44;4969542;28;20627;-72
2024/03/29 11:00:18;;;;;;;3.37;2.40;;;;;;;9.64;64.45;94635.44;4968339;28;20919;-69
2024/03/29 11:03:04;;;;;;;6.00;3.00;;;;;;;10.14;63.10;94631.91;4965870;28;20429;-71
2024/03/29 11:05:38;;;;;;;2.53;2.33;;;;;;;10.65;61.09;94609.94;4969654;28;20476;-70
2024/03/29 11:08:07;;;;;;;3.20;2.83;;;;;;;10.51;61.12;94600.47;4963191;28;20472;-70
2024/03/29 11:10:53;;;;;;;3.43;2.47;;;;;;;10.59;62.00;94598.13;4968453;28;20469;-69
2024/03/29 11:13:42;;;;;;;2.67;2.37;;;;;;;10.12;63.79;94594.47;4963094;28;20441;-68
2024/03/29 11:16:08;;;;;;;2.80;2.60;;;;;;;10.33;63.41;94575.56;4963258;28;20446;-70
2024/03/29 11:18:36;;;;;;;2.80;2.40;;;;;;;10.73;62.66;94578.75;4959111;28;20438;-70
2024/03/29 11:21:05;;;;;;;2.63;2.13;;;;;;;10.56;63.22;94579.16;4974178;28;20580;-69
2024/03/29 11:23:32;;;;;;;3.33;2.83;;;;;;;10.86;62.03;94562.09;4969672;28;20433;-69
2024/03/29 11:25:59;;;;;;;6.23;2.90;;;;;;;11.10;60.86;94576.03;4962714;28;20830;-69
2024/03/29 11:28:29;;;;;;;7.37;2.80;;;;;;;11.16;60.96;94575.53;4968406;28;20441;-68
2024/03/29 11:31:00;;;;;;;2.37;2.17;;;;;;;10.89;62.00;94585.47;4969099;28;20467;-68
2024/03/29 11:33:49;;;;;;;3.60;2.60;;;;;;;10.60;62.95;94572.72;4960751;28;20440;-69
2024/03/29 11:36:25;;;;;;;2.73;2.40;;;;;;;10.83;62.57;94572.81;4965626;28;20445;-67
2024/03/29 11:38:59;;;;;;;2.53;2.30;;;;;;;11.12;61.74;94570.63;4961558;28;20453;-69
2024/03/29 11:41:26;;;;;;;3.00;2.63;;;;;;;10.93;62.21;94577.25;4967598;28;20900;-69
2024/03/29 11:43:55;;;;;;;3.27;2.80;;;;;;;10.76;62.76;94565.41;4961918;28;20468;-69